sensor_id;sensor_type;location;lat;lon;timestamp;P1;durP1;ratioP1;P2;durP2;ratioP2
71166;SDS011;58864;45.928;20.078;2023-02-21T00:00:07;18.50;;;7.00;;
71166;SDS011;58864;45.928;20.078;2023-02-21T00:02:51;17.42;;;7.15;;
71166;SDS011;58864;45.928;20.078;2023-02-21T00:05:34;15.70;;;6.77;;
71166;SDS011;58864;45.928;20.078;2023-02-21T00:08:17;16.05;;;7.07;;
71166;SDS011;58864;45.928;20.078;2023-02-21T00:10:59;18.63;;;7.18;;
71166;SDS011;58864;45.928;20.078;2023-02-21T00:13:42;18.15;;;7.63;;
71166;SDS011;58864;45.928;20.078;2023-02-21T00:16:25;16.13;;;7.10;;
71166;SDS011;58864;45.928;20.078;2023-02-21T00:19:08;16.93;;;6.83;;
71166;SDS011;58864;45.928;20.078;2023-02-21T00:21:51;15.30;;;6.80;;
71166;SDS011;58864;45.928;20.078;2023-02-21T00:24:34;18.10;;;7.43;;
71166;SDS011;58864;45.928;20.078;2023-02-21T00:27:17;17.17;;;7.50;;
71166;SDS011;58864;45.928;20.078;2023-02-21T00:30:00;16.98;;;7.63;;
71166;SDS011;58864;45.928;20.078;2023-02-21T00:32:43;16.47;;;7.00;;
71166;SDS011;58864;45.928;20.078;2023-02-21T00:35:26;16.33;;;6.65;;
71166;SDS011;58864;45.928;20.078;2023-02-21T00:38:09;19.75;;;7.22;;
71166;SDS011;58864;45.928;20.078;2023-02-21T00:40:52;17.73;;;7.53;;
71166;SDS011;58864;45.928;20.078;2023-02-21T00:43:35;20.13;;;8.02;;
71166;SDS011;58864;45.928;20.078;2023-02-21T00:46:18;17.00;;;7.60;;
71166;SDS011;58864;45.928;20.078;2023-02-21T00:49:01;15.68;;;7.10;;
71166;SDS011;58864;45.928;20.078;2023-02-21T00:51:45;19.27;;;7.68;;
71166;SDS011;58864;45.928;20.078;2023-02-21T00:54:28;17.27;;;7.80;;
71166;SDS011;58864;45.928;20.078;2023-02-21T00:57:11;17.90;;;7.35;;
71166;SDS011;58864;45.928;20.078;2023-02-21T00:59:54;16.17;;;7.53;;
71166;SDS011;58864;45.928;20.078;2023-02-21T01:02:37;16.90;;;6.88;;
71166;SDS011;58864;45.928;20.078;2023-02-21T01:05:20;17.00;;;7.43;;
71166;SDS011;58864;45.928;20.078;2023-02-21T01:08:03;18.40;;;7.88;;
71166;SDS011;58864;45.928;20.078;2023-02-21T01:10:46;14.63;;;6.30;;
71166;SDS011;58864;45.928;20.078;2023-02-21T01:13:29;16.83;;;6.90;;
71166;SDS011;58864;45.928;20.078;2023-02-21T01:16:12;14.73;;;6.88;;
71166;SDS011;58864;45.928;20.078;2023-02-21T01:18:55;18.23;;;7.50;;
71166;SDS011;58864;45.928;20.078;2023-02-21T01:21:38;18.33;;;7.38;;
71166;SDS011;58864;45.928;20.078;2023-02-21T01:24:21;15.57;;;7.43;;
71166;SDS011;58864;45.928;20.078;2023-02-21T01:27:03;16.63;;;7.10;;
71166;SDS011;58864;45.928;20.078;2023-02-21T01:29:46;16.83;;;7.15;;
71166;SDS011;58864;45.928;20.078;2023-02-21T01:32:29;18.77;;;7.20;;
71166;SDS011;58864;45.928;20.078;2023-02-21T01:35:12;17.27;;;7.57;;
71166;SDS011;58864;45.928;20.078;2023-02-21T01:37:55;16.40;;;7.40;;
71166;SDS011;58864;45.928;20.078;2023-02-21T01:40:38;18.33;;;7.47;;
71166;SDS011;58864;45.928;20.078;2023-02-21T01:43:22;15.60;;;7.32;;
71166;SDS011;58864;45.928;20.078;2023-02-21T01:46:10;15.60;;;7.00;;
71166;SDS011;58864;45.928;20.078;2023-02-21T01:48:54;16.33;;;7.55;;
71166;SDS011;58864;45.928;20.078;2023-02-21T01:51:38;18.88;;;7.90;;
71166;SDS011;58864;45.928;20.078;2023-02-21T01:54:22;15.47;;;6.90;;
71166;SDS011;58864;45.928;20.078;2023-02-21T01:57:09;19.60;;;7.53;;
71166;SDS011;58864;45.928;20.078;2023-02-21T01:59:56;15.63;;;6.85;;
71166;SDS011;58864;45.928;20.078;2023-02-21T02:05:38;16.02;;;7.40;;
71166;SDS011;58864;45.928;20.078;2023-02-21T02:08:23;16.83;;;7.63;;
71166;SDS011;58864;45.928;20.078;2023-02-21T02:14:42;19.52;;;7.75;;
71166;SDS011;58864;45.928;20.078;2023-02-21T02:22:18;16.80;;;6.70;;
71166;SDS011;58864;45.928;20.078;2023-02-21T02:30:23;15.50;;;6.57;;
71166;SDS011;58864;45.928;20.078;2023-02-21T02:33:14;15.10;;;6.43;;
71166;SDS011;58864;45.928;20.078;2023-02-21T02:35:48;14.32;;;6.53;;
71166;SDS011;58864;45.928;20.078;2023-02-21T02:40:50;14.83;;;6.13;;
71166;SDS011;58864;45.928;20.078;2023-02-21T02:48:19;14.93;;;6.00;;
71166;SDS011;58864;45.928;20.078;2023-02-21T02:50:46;12.95;;;6.10;;
71166;SDS011;58864;45.928;20.078;2023-02-21T02:53:14;14.20;;;6.03;;
71166;SDS011;58864;45.928;20.078;2023-02-21T02:58:06;13.10;;;5.85;;
71166;SDS011;58864;45.928;20.078;2023-02-21T03:00:33;16.42;;;6.50;;
71166;SDS011;58864;45.928;20.078;2023-02-21T03:08:54;15.70;;;6.15;;
71166;SDS011;58864;45.928;20.078;2023-02-21T03:11:24;14.85;;;6.35;;
71166;SDS011;58864;45.928;20.078;2023-02-21T03:13:55;14.45;;;6.30;;
71166;SDS011;58864;45.928;20.078;2023-02-21T03:16:31;14.48;;;6.72;;
71166;SDS011;58864;45.928;20.078;2023-02-21T03:19:02;12.60;;;5.60;;
71166;SDS011;58864;45.928;20.078;2023-02-21T03:21:37;13.80;;;5.93;;
71166;SDS011;58864;45.928;20.078;2023-02-21T03:24:05;14.65;;;5.72;;
71166;SDS011;58864;45.928;20.078;2023-02-21T03:26:32;14.40;;;5.97;;
71166;SDS011;58864;45.928;20.078;2023-02-21T03:28:58;16.95;;;5.70;;
71166;SDS011;58864;45.928;20.078;2023-02-21T03:31:23;13.00;;;6.30;;
71166;SDS011;58864;45.928;20.078;2023-02-21T03:33:51;13.57;;;6.20;;
71166;SDS011;58864;45.928;20.078;2023-02-21T03:36:15;13.77;;;5.53;;
71166;SDS011;58864;45.928;20.078;2023-02-21T03:38:40;12.60;;;6.00;;
71166;SDS011;58864;45.928;20.078;2023-02-21T03:41:05;13.47;;;6.47;;
71166;SDS011;58864;45.928;20.078;2023-02-21T03:43:30;13.97;;;6.20;;
71166;SDS011;58864;45.928;20.078;2023-02-21T03:45:54;13.07;;;6.07;;
71166;SDS011;58864;45.928;20.078;2023-02-21T03:48:19;13.30;;;6.20;;
71166;SDS011;58864;45.928;20.078;2023-02-21T03:50:43;15.80;;;6.53;;
71166;SDS011;58864;45.928;20.078;2023-02-21T03:53:08;14.10;;;6.17;;
71166;SDS011;58864;45.928;20.078;2023-02-21T03:55:33;14.15;;;6.35;;
71166;SDS011;58864;45.928;20.078;2023-02-21T03:57:57;16.93;;;6.80;;
71166;SDS011;58864;45.928;20.078;2023-02-21T04:00:21;13.33;;;6.33;;
71166;SDS011;58864;45.928;20.078;2023-02-21T04:02:46;15.70;;;6.10;;
71166;SDS011;58864;45.928;20.078;2023-02-21T04:05:10;15.67;;;6.90;;
71166;SDS011;58864;45.928;20.078;2023-02-21T04:07:35;12.77;;;6.23;;
71166;SDS011;58864;45.928;20.078;2023-02-21T04:09:59;15.83;;;6.87;;
71166;SDS011;58864;45.928;20.078;2023-02-21T04:12:24;15.57;;;6.00;;
71166;SDS011;58864;45.928;20.078;2023-02-21T04:14:48;15.23;;;6.83;;
71166;SDS011;58864;45.928;20.078;2023-02-21T04:17:15;16.52;;;6.68;;
71166;SDS011;58864;45.928;20.078;2023-02-21T04:19:40;13.25;;;6.10;;
71166;SDS011;58864;45.928;20.078;2023-02-21T04:22:04;13.97;;;6.30;;
71166;SDS011;58864;45.928;20.078;2023-02-21T04:24:29;15.33;;;6.87;;
71166;SDS011;58864;45.928;20.078;2023-02-21T04:26:53;16.90;;;6.55;;
71166;SDS011;58864;45.928;20.078;2023-02-21T04:29:17;17.67;;;7.10;;
71166;SDS011;58864;45.928;20.078;2023-02-21T04:31:42;15.33;;;6.53;;
71166;SDS011;58864;45.928;20.078;2023-02-21T04:34:06;14.50;;;6.53;;
71166;SDS011;58864;45.928;20.078;2023-02-21T04:36:31;17.75;;;6.82;;
71166;SDS011;58864;45.928;20.078;2023-02-21T04:38:55;19.93;;;7.93;;
71166;SDS011;58864;45.928;20.078;2023-02-21T04:41:20;16.10;;;7.00;;
71166;SDS011;58864;45.928;20.078;2023-02-21T04:43:45;18.52;;;7.45;;
71166;SDS011;58864;45.928;20.078;2023-02-21T04:46:09;17.67;;;7.27;;
71166;SDS011;58864;45.928;20.078;2023-02-21T04:48:38;16.08;;;6.88;;
71166;SDS011;58864;45.928;20.078;2023-02-21T04:51:03;15.40;;;7.10;;
71166;SDS011;58864;45.928;20.078;2023-02-21T04:53:27;25.97;;;10.00;;
71166;SDS011;58864;45.928;20.078;2023-02-21T04:55:52;27.10;;;10.60;;
71166;SDS011;58864;45.928;20.078;2023-02-21T04:58:16;22.33;;;9.33;;
71166;SDS011;58864;45.928;20.078;2023-02-21T05:00:41;22.30;;;8.77;;
71166;SDS011;58864;45.928;20.078;2023-02-21T05:03:05;16.83;;;7.37;;
71166;SDS011;58864;45.928;20.078;2023-02-21T05:05:29;17.20;;;7.18;;
71166;SDS011;58864;45.928;20.078;2023-02-21T05:07:54;16.20;;;6.97;;
71166;SDS011;58864;45.928;20.078;2023-02-21T05:10:19;18.58;;;7.80;;
71166;SDS011;58864;45.928;20.078;2023-02-21T05:12:43;19.40;;;7.70;;
71166;SDS011;58864;45.928;20.078;2023-02-21T05:15:08;18.00;;;7.87;;
71166;SDS011;58864;45.928;20.078;2023-02-21T05:17:33;19.60;;;8.60;;
71166;SDS011;58864;45.928;20.078;2023-02-21T05:19:57;20.03;;;7.67;;
71166;SDS011;58864;45.928;20.078;2023-02-21T05:22:22;24.48;;;9.40;;
71166;SDS011;58864;45.928;20.078;2023-02-21T05:24:46;21.40;;;9.70;;
71166;SDS011;58864;45.928;20.078;2023-02-21T05:27:12;21.65;;;8.70;;
71166;SDS011;58864;45.928;20.078;2023-02-21T05:29:38;20.67;;;8.60;;
71166;SDS011;58864;45.928;20.078;2023-02-21T05:32:03;20.07;;;8.20;;
71166;SDS011;58864;45.928;20.078;2023-02-21T05:34:27;17.10;;;8.50;;
71166;SDS011;58864;45.928;20.078;2023-02-21T05:36:51;20.93;;;9.03;;
71166;SDS011;58864;45.928;20.078;2023-02-21T05:39:16;26.08;;;10.20;;
71166;SDS011;58864;45.928;20.078;2023-02-21T05:41:47;24.70;;;9.60;;
71166;SDS011;58864;45.928;20.078;2023-02-21T05:44:12;25.65;;;9.68;;
71166;SDS011;58864;45.928;20.078;2023-02-21T05:46:37;32.50;;;12.97;;
71166;SDS011;58864;45.928;20.078;2023-02-21T05:49:02;29.20;;;13.70;;
71166;SDS011;58864;45.928;20.078;2023-02-21T05:51:27;35.67;;;13.90;;
71166;SDS011;58864;45.928;20.078;2023-02-21T05:53:57;38.30;;;14.75;;
71166;SDS011;58864;45.928;20.078;2023-02-21T05:56:22;40.30;;;15.40;;
71166;SDS011;58864;45.928;20.078;2023-02-21T05:58:46;33.17;;;13.63;;
71166;SDS011;58864;45.928;20.078;2023-02-21T06:01:11;29.60;;;12.40;;
71166;SDS011;58864;45.928;20.078;2023-02-21T06:03:35;35.90;;;13.88;;
71166;SDS011;58864;45.928;20.078;2023-02-21T06:06:01;33.80;;;13.57;;
71166;SDS011;58864;45.928;20.078;2023-02-21T06:08:25;31.35;;;14.45;;
71166;SDS011;58864;45.928;20.078;2023-02-21T06:10:50;35.10;;;14.20;;
71166;SDS011;58864;45.928;20.078;2023-02-21T06:13:14;33.50;;;13.32;;
71166;SDS011;58864;45.928;20.078;2023-02-21T06:15:39;34.87;;;14.83;;
71166;SDS011;58864;45.928;20.078;2023-02-21T06:18:03;31.13;;;13.40;;
71166;SDS011;58864;45.928;20.078;2023-02-21T06:20:27;32.27;;;12.60;;
71166;SDS011;58864;45.928;20.078;2023-02-21T06:22:52;28.47;;;11.70;;
71166;SDS011;58864;45.928;20.078;2023-02-21T06:25:17;26.10;;;11.55;;
71166;SDS011;58864;45.928;20.078;2023-02-21T06:27:41;26.27;;;12.27;;
71166;SDS011;58864;45.928;20.078;2023-02-21T06:30:07;28.92;;;11.93;;
71166;SDS011;58864;45.928;20.078;2023-02-21T06:32:32;24.70;;;10.23;;
71166;SDS011;58864;45.928;20.078;2023-02-21T06:34:56;24.57;;;10.13;;
71166;SDS011;58864;45.928;20.078;2023-02-21T06:37:20;26.73;;;10.70;;
71166;SDS011;58864;45.928;20.078;2023-02-21T06:39:45;32.95;;;11.90;;
71166;SDS011;58864;45.928;20.078;2023-02-21T06:42:13;26.43;;;11.30;;
71166;SDS011;58864;45.928;20.078;2023-02-21T06:44:38;29.05;;;10.63;;
71166;SDS011;58864;45.928;20.078;2023-02-21T06:47:03;23.10;;;11.13;;
71166;SDS011;58864;45.928;20.078;2023-02-21T06:49:27;20.87;;;9.87;;
71166;SDS011;58864;45.928;20.078;2023-02-21T06:51:51;21.53;;;9.00;;
71166;SDS011;58864;45.928;20.078;2023-02-21T06:54:16;22.13;;;9.48;;
71166;SDS011;58864;45.928;20.078;2023-02-21T06:56:40;21.33;;;8.70;;
71166;SDS011;58864;45.928;20.078;2023-02-21T06:59:05;18.17;;;7.93;;
71166;SDS011;58864;45.928;20.078;2023-02-21T07:01:30;22.60;;;9.32;;
71166;SDS011;58864;45.928;20.078;2023-02-21T07:03:55;19.63;;;9.07;;
71166;SDS011;58864;45.928;20.078;2023-02-21T07:06:20;21.02;;;9.50;;
71166;SDS011;58864;45.928;20.078;2023-02-21T07:08:45;23.45;;;9.90;;
71166;SDS011;58864;45.928;20.078;2023-02-21T07:11:09;22.57;;;10.53;;
71166;SDS011;58864;45.928;20.078;2023-02-21T07:13:34;19.57;;;9.10;;
71166;SDS011;58864;45.928;20.078;2023-02-21T07:15:59;20.13;;;8.87;;
71166;SDS011;58864;45.928;20.078;2023-02-21T07:18:23;20.20;;;8.75;;
71166;SDS011;58864;45.928;20.078;2023-02-21T07:20:48;28.60;;;10.43;;
71166;SDS011;58864;45.928;20.078;2023-02-21T07:23:12;23.08;;;9.98;;
71166;SDS011;58864;45.928;20.078;2023-02-21T07:25:37;21.30;;;10.13;;
71166;SDS011;58864;45.928;20.078;2023-02-21T07:28:01;21.23;;;9.20;;
71166;SDS011;58864;45.928;20.078;2023-02-21T07:30:27;21.50;;;10.05;;
71166;SDS011;58864;45.928;20.078;2023-02-21T07:32:51;25.93;;;10.67;;
71166;SDS011;58864;45.928;20.078;2023-02-21T07:35:16;22.13;;;10.27;;
71166;SDS011;58864;45.928;20.078;2023-02-21T07:37:40;25.77;;;11.30;;
71166;SDS011;58864;45.928;20.078;2023-02-21T07:40:05;28.53;;;12.70;;
71166;SDS011;58864;45.928;20.078;2023-02-21T07:42:32;30.10;;;13.70;;
71166;SDS011;58864;45.928;20.078;2023-02-21T07:44:57;21.03;;;9.77;;
71166;SDS011;58864;45.928;20.078;2023-02-21T07:47:22;23.30;;;10.02;;
71166;SDS011;58864;45.928;20.078;2023-02-21T07:49:47;23.27;;;9.82;;
71166;SDS011;58864;45.928;20.078;2023-02-21T07:52:11;19.90;;;9.30;;
71166;SDS011;58864;45.928;20.078;2023-02-21T07:54:36;23.20;;;9.33;;
71166;SDS011;58864;45.928;20.078;2023-02-21T07:57:00;25.63;;;10.53;;
71166;SDS011;58864;45.928;20.078;2023-02-21T07:59:25;24.30;;;8.70;;
71166;SDS011;58864;45.928;20.078;2023-02-21T08:01:49;22.83;;;8.17;;
71166;SDS011;58864;45.928;20.078;2023-02-21T08:04:14;20.50;;;7.70;;
71166;SDS011;58864;45.928;20.078;2023-02-21T08:06:43;21.55;;;8.98;;
71166;SDS011;58864;45.928;20.078;2023-02-21T08:09:07;22.67;;;9.43;;
71166;SDS011;58864;45.928;20.078;2023-02-21T08:11:32;20.38;;;9.40;;
71166;SDS011;58864;45.928;20.078;2023-02-21T08:13:59;21.43;;;8.90;;
71166;SDS011;58864;45.928;20.078;2023-02-21T08:16:24;18.95;;;8.65;;
71166;SDS011;58864;45.928;20.078;2023-02-21T08:18:48;18.17;;;8.47;;
71166;SDS011;58864;45.928;20.078;2023-02-21T08:21:16;22.35;;;9.20;;
71166;SDS011;58864;45.928;20.078;2023-02-21T08:23:40;18.73;;;8.17;;
71166;SDS011;58864;45.928;20.078;2023-02-21T08:26:05;26.73;;;9.30;;
71166;SDS011;58864;45.928;20.078;2023-02-21T08:28:29;19.30;;;8.97;;
71166;SDS011;58864;45.928;20.078;2023-02-21T08:30:53;19.10;;;8.25;;
71166;SDS011;58864;45.928;20.078;2023-02-21T08:33:18;17.23;;;7.57;;
71166;SDS011;58864;45.928;20.078;2023-02-21T08:35:42;15.70;;;7.00;;
71166;SDS011;58864;45.928;20.078;2023-02-21T08:38:07;15.65;;;6.70;;
71166;SDS011;58864;45.928;20.078;2023-02-21T08:40:33;17.43;;;6.60;;
71166;SDS011;58864;45.928;20.078;2023-02-21T08:42:58;13.88;;;6.78;;
71166;SDS011;58864;45.928;20.078;2023-02-21T08:45:23;13.13;;;6.07;;
71166;SDS011;58864;45.928;20.078;2023-02-21T08:47:49;14.27;;;6.20;;
71166;SDS011;58864;45.928;20.078;2023-02-21T08:50:14;12.60;;;5.65;;
71166;SDS011;58864;45.928;20.078;2023-02-21T08:52:39;15.30;;;6.10;;
71166;SDS011;58864;45.928;20.078;2023-02-21T08:55:04;16.85;;;7.43;;
71166;SDS011;58864;45.928;20.078;2023-02-21T08:57:29;15.03;;;6.33;;
71166;SDS011;58864;45.928;20.078;2023-02-21T08:59:54;13.90;;;5.80;;
71166;SDS011;58864;45.928;20.078;2023-02-21T09:02:19;15.93;;;6.03;;
71166;SDS011;58864;45.928;20.078;2023-02-21T09:04:45;15.30;;;6.28;;
71166;SDS011;58864;45.928;20.078;2023-02-21T09:07:11;13.55;;;5.90;;
71166;SDS011;58864;45.928;20.078;2023-02-21T09:09:37;15.97;;;6.73;;
71166;SDS011;58864;45.928;20.078;2023-02-21T09:12:02;17.02;;;7.10;;
71166;SDS011;58864;45.928;20.078;2023-02-21T09:14:31;15.02;;;7.07;;
71166;SDS011;58864;45.928;20.078;2023-02-21T09:16:55;15.40;;;6.00;;
71166;SDS011;58864;45.928;20.078;2023-02-21T09:19:19;14.60;;;7.00;;
71166;SDS011;58864;45.928;20.078;2023-02-21T09:21:45;15.32;;;6.80;;
71166;SDS011;58864;45.928;20.078;2023-02-21T09:24:11;14.02;;;6.65;;
71166;SDS011;58864;45.928;20.078;2023-02-21T09:26:35;13.10;;;5.95;;
71166;SDS011;58864;45.928;20.078;2023-02-21T09:29:00;14.40;;;6.50;;
71166;SDS011;58864;45.928;20.078;2023-02-21T09:31:24;13.80;;;6.67;;
71166;SDS011;58864;45.928;20.078;2023-02-21T09:33:49;14.40;;;6.60;;
71166;SDS011;58864;45.928;20.078;2023-02-21T09:36:13;13.50;;;6.40;;
71166;SDS011;58864;45.928;20.078;2023-02-21T09:38:38;13.73;;;6.43;;
71166;SDS011;58864;45.928;20.078;2023-02-21T09:41:05;13.07;;;5.45;;
71166;SDS011;58864;45.928;20.078;2023-02-21T09:45:56;10.40;;;4.73;;
71166;SDS011;58864;45.928;20.078;2023-02-21T09:48:22;10.43;;;4.10;;
71166;SDS011;58864;45.928;20.078;2023-02-21T09:50:48;9.77;;;4.40;;
71166;SDS011;58864;45.928;20.078;2023-02-21T09:53:16;11.30;;;5.38;;
71166;SDS011;58864;45.928;20.078;2023-02-21T09:55:43;12.73;;;5.03;;
71166;SDS011;58864;45.928;20.078;2023-02-21T09:58:12;11.77;;;4.77;;
71166;SDS011;58864;45.928;20.078;2023-02-21T10:00:38;10.07;;;4.05;;
71166;SDS011;58864;45.928;20.078;2023-02-21T10:08:29;9.38;;;4.72;;
71166;SDS011;58864;45.928;20.078;2023-02-21T10:11:24;9.57;;;4.47;;
71166;SDS011;58864;45.928;20.078;2023-02-21T10:14:10;8.95;;;4.22;;
71166;SDS011;58864;45.928;20.078;2023-02-21T10:16:55;12.25;;;4.57;;
71166;SDS011;58864;45.928;20.078;2023-02-21T10:19:30;29.05;;;11.52;;
71166;SDS011;58864;45.928;20.078;2023-02-21T10:21:59;15.68;;;6.45;;
71166;SDS011;58864;45.928;20.078;2023-02-21T10:24:26;11.73;;;4.67;;
71166;SDS011;58864;45.928;20.078;2023-02-21T10:27:05;12.40;;;6.57;;
71166;SDS011;58864;45.928;20.078;2023-02-21T10:29:37;9.85;;;4.68;;
71166;SDS011;58864;45.928;20.078;2023-02-21T10:32:05;9.35;;;4.70;;
71166;SDS011;58864;45.928;20.078;2023-02-21T10:34:32;10.93;;;4.70;;
71166;SDS011;58864;45.928;20.078;2023-02-21T10:36:58;12.40;;;4.97;;
71166;SDS011;58864;45.928;20.078;2023-02-21T10:39:30;11.27;;;4.53;;
71166;SDS011;58864;45.928;20.078;2023-02-21T10:42:00;10.27;;;4.72;;
71166;SDS011;58864;45.928;20.078;2023-02-21T10:44:25;9.13;;;4.20;;
71166;SDS011;58864;45.928;20.078;2023-02-21T10:46:57;14.00;;;4.10;;
71166;SDS011;58864;45.928;20.078;2023-02-21T10:49:24;11.00;;;3.78;;
71166;SDS011;58864;45.928;20.078;2023-02-21T10:52:12;9.65;;;4.18;;
71166;SDS011;58864;45.928;20.078;2023-02-21T10:54:39;10.05;;;4.35;;
71166;SDS011;58864;45.928;20.078;2023-02-21T10:57:07;12.27;;;4.77;;
71166;SDS011;58864;45.928;20.078;2023-02-21T10:59:35;13.60;;;4.47;;
71166;SDS011;58864;45.928;20.078;2023-02-21T11:02:02;10.80;;;4.47;;
71166;SDS011;58864;45.928;20.078;2023-02-21T11:04:31;9.87;;;4.33;;
71166;SDS011;58864;45.928;20.078;2023-02-21T11:09:29;11.27;;;4.60;;
71166;SDS011;58864;45.928;20.078;2023-02-21T11:17:15;11.57;;;4.60;;
71166;SDS011;58864;45.928;20.078;2023-02-21T11:22:17;10.32;;;3.85;;
71166;SDS011;58864;45.928;20.078;2023-02-21T11:24:45;9.15;;;3.30;;
71166;SDS011;58864;45.928;20.078;2023-02-21T11:27:32;8.10;;;3.55;;
71166;SDS011;58864;45.928;20.078;2023-02-21T11:29:58;9.23;;;3.73;;
71166;SDS011;58864;45.928;20.078;2023-02-21T11:32:30;8.98;;;3.58;;
71166;SDS011;58864;45.928;20.078;2023-02-21T11:35:00;8.07;;;3.40;;
71166;SDS011;58864;45.928;20.078;2023-02-21T11:38:01;13.85;;;3.80;;
71166;SDS011;58864;45.928;20.078;2023-02-21T11:45:48;9.80;;;3.47;;
71166;SDS011;58864;45.928;20.078;2023-02-21T11:48:15;10.10;;;2.70;;
71166;SDS011;58864;45.928;20.078;2023-02-21T11:50:42;10.18;;;2.95;;
71166;SDS011;58864;45.928;20.078;2023-02-21T11:53:15;7.35;;;3.13;;
71166;SDS011;58864;45.928;20.078;2023-02-21T11:55:49;9.83;;;3.70;;
71166;SDS011;58864;45.928;20.078;2023-02-21T11:58:24;12.15;;;3.63;;
71166;SDS011;58864;45.928;20.078;2023-02-21T12:00:52;8.40;;;2.85;;
71166;SDS011;58864;45.928;20.078;2023-02-21T12:03:35;9.10;;;2.90;;
71166;SDS011;58864;45.928;20.078;2023-02-21T12:14:53;10.35;;;2.33;;
71166;SDS011;58864;45.928;20.078;2023-02-21T12:51:20;9.00;;;1.92;;
71166;SDS011;58864;45.928;20.078;2023-02-21T12:54:09;8.83;;;1.83;;
71166;SDS011;58864;45.928;20.078;2023-02-21T12:56:43;6.65;;;1.98;;
71166;SDS011;58864;45.928;20.078;2023-02-21T12:59:24;6.88;;;1.20;;
71166;SDS011;58864;45.928;20.078;2023-02-21T13:01:57;5.10;;;1.50;;
71166;SDS011;58864;45.928;20.078;2023-02-21T13:04:43;6.33;;;1.20;;
71166;SDS011;58864;45.928;20.078;2023-02-21T13:07:11;4.55;;;1.15;;
71166;SDS011;58864;45.928;20.078;2023-02-21T13:09:42;4.50;;;1.10;;
71166;SDS011;58864;45.928;20.078;2023-02-21T13:12:12;4.23;;;1.00;;
71166;SDS011;58864;45.928;20.078;2023-02-21T13:14:49;3.42;;;0.98;;
71166;SDS011;58864;45.928;20.078;2023-02-21T13:17:19;6.47;;;1.00;;
71166;SDS011;58864;45.928;20.078;2023-02-21T13:19:45;5.33;;;1.00;;
71166;SDS011;58864;45.928;20.078;2023-02-21T13:22:18;5.28;;;1.25;;
71166;SDS011;58864;45.928;20.078;2023-02-21T13:27:55;4.43;;;1.20;;
71166;SDS011;58864;45.928;20.078;2023-02-21T13:30:26;6.47;;;1.00;;
71166;SDS011;58864;45.928;20.078;2023-02-21T13:33:01;7.40;;;1.37;;
71166;SDS011;58864;45.928;20.078;2023-02-21T13:35:32;4.03;;;0.93;;
71166;SDS011;58864;45.928;20.078;2023-02-21T13:37:59;6.10;;;1.05;;
71166;SDS011;58864;45.928;20.078;2023-02-21T13:40:31;5.83;;;1.20;;
71166;SDS011;58864;45.928;20.078;2023-02-21T13:42:59;6.57;;;1.00;;
71166;SDS011;58864;45.928;20.078;2023-02-21T13:45:30;6.10;;;1.40;;
71166;SDS011;58864;45.928;20.078;2023-02-21T13:55:39;5.85;;;1.20;;
71166;SDS011;58864;45.928;20.078;2023-02-21T13:58:45;6.03;;;1.35;;
71166;SDS011;58864;45.928;20.078;2023-02-21T14:01:12;7.97;;;1.20;;
71166;SDS011;58864;45.928;20.078;2023-02-21T14:03:47;12.25;;;1.83;;
71166;SDS011;58864;45.928;20.078;2023-02-21T14:08:52;5.03;;;1.30;;
71166;SDS011;58864;45.928;20.078;2023-02-21T14:11:22;8.00;;;1.88;;
71166;SDS011;58864;45.928;20.078;2023-02-21T14:13:55;7.47;;;1.85;;
71166;SDS011;58864;45.928;20.078;2023-02-21T14:16:36;4.50;;;1.42;;
71166;SDS011;58864;45.928;20.078;2023-02-21T14:19:10;7.33;;;1.57;;
71166;SDS011;58864;45.928;20.078;2023-02-21T14:21:45;7.03;;;1.80;;
71166;SDS011;58864;45.928;20.078;2023-02-21T14:29:34;8.48;;;2.35;;
71166;SDS011;58864;45.928;20.078;2023-02-21T14:49:00;8.13;;;2.22;;
71166;SDS011;58864;45.928;20.078;2023-02-21T15:05:02;6.80;;;1.83;;
71166;SDS011;58864;45.928;20.078;2023-02-21T15:10:38;5.95;;;1.95;;
71166;SDS011;58864;45.928;20.078;2023-02-21T15:12:54;11.52;;;2.20;;
71166;SDS011;58864;45.928;20.078;2023-02-21T15:15:28;7.65;;;2.47;;
71166;SDS011;58864;45.928;20.078;2023-02-21T15:20:29;7.65;;;2.50;;
71166;SDS011;58864;45.928;20.078;2023-02-21T15:23:16;9.85;;;3.10;;
71166;SDS011;58864;45.928;20.078;2023-02-21T15:25:40;8.80;;;2.58;;
71166;SDS011;58864;45.928;20.078;2023-02-21T15:28:13;7.78;;;2.72;;
71166;SDS011;58864;45.928;20.078;2023-02-21T15:30:53;7.50;;;3.00;;
71166;SDS011;58864;45.928;20.078;2023-02-21T15:33:22;12.63;;;3.55;;
71166;SDS011;58864;45.928;20.078;2023-02-21T15:35:51;9.68;;;4.00;;
71166;SDS011;58864;45.928;20.078;2023-02-21T15:41:00;9.23;;;3.38;;
71166;SDS011;58864;45.928;20.078;2023-02-21T15:43:30;7.70;;;3.07;;
71166;SDS011;58864;45.928;20.078;2023-02-21T15:45:55;8.85;;;2.70;;
71166;SDS011;58864;45.928;20.078;2023-02-21T15:48:21;8.00;;;3.50;;
71166;SDS011;58864;45.928;20.078;2023-02-21T15:50:45;8.70;;;3.97;;
71166;SDS011;58864;45.928;20.078;2023-02-21T15:53:11;9.97;;;4.10;;
71166;SDS011;58864;45.928;20.078;2023-02-21T15:55:38;10.90;;;4.28;;
71166;SDS011;58864;45.928;20.078;2023-02-21T16:00:35;13.63;;;4.60;;
71166;SDS011;58864;45.928;20.078;2023-02-21T16:08:51;11.43;;;5.18;;
71166;SDS011;58864;45.928;20.078;2023-02-21T16:11:37;13.55;;;5.60;;
71166;SDS011;58864;45.928;20.078;2023-02-21T16:14:02;15.23;;;6.43;;
71166;SDS011;58864;45.928;20.078;2023-02-21T16:16:31;13.82;;;4.93;;
71166;SDS011;58864;45.928;20.078;2023-02-21T16:18:56;14.60;;;4.80;;
71166;SDS011;58864;45.928;20.078;2023-02-21T16:21:24;23.60;;;8.77;;
71166;SDS011;58864;45.928;20.078;2023-02-21T16:23:50;18.60;;;6.75;;
71166;SDS011;58864;45.928;20.078;2023-02-21T16:28:40;24.40;;;10.17;;
71166;SDS011;58864;45.928;20.078;2023-02-21T16:31:08;22.70;;;9.90;;
71166;SDS011;58864;45.928;20.078;2023-02-21T16:33:37;20.73;;;9.20;;
71166;SDS011;58864;45.928;20.078;2023-02-21T16:36:35;21.97;;;9.83;;
71166;SDS011;58864;45.928;20.078;2023-02-21T16:38:54;24.52;;;11.10;;
71166;SDS011;58864;45.928;20.078;2023-02-21T16:41:19;22.25;;;11.25;;
71166;SDS011;58864;45.928;20.078;2023-02-21T16:43:43;44.73;;;21.23;;
71166;SDS011;58864;45.928;20.078;2023-02-21T16:46:09;37.40;;;17.73;;
71166;SDS011;58864;45.928;20.078;2023-02-21T16:48:33;39.20;;;18.17;;
71166;SDS011;58864;45.928;20.078;2023-02-21T16:50:59;38.70;;;18.20;;
71166;SDS011;58864;45.928;20.078;2023-02-21T16:53:28;45.88;;;22.27;;
71166;SDS011;58864;45.928;20.078;2023-02-21T16:55:52;72.50;;;36.42;;
71166;SDS011;58864;45.928;20.078;2023-02-21T16:58:22;216.20;;;79.27;;
71166;SDS011;58864;45.928;20.078;2023-02-21T17:00:49;122.05;;;42.20;;
71166;SDS011;58864;45.928;20.078;2023-02-21T17:03:15;54.13;;;20.08;;
71166;SDS011;58864;45.928;20.078;2023-02-21T17:05:39;49.70;;;18.20;;
71166;SDS011;58864;45.928;20.078;2023-02-21T17:08:04;52.10;;;17.90;;
71166;SDS011;58864;45.928;20.078;2023-02-21T17:10:29;40.50;;;14.23;;
71166;SDS011;58864;45.928;20.078;2023-02-21T17:12:55;32.55;;;12.38;;
71166;SDS011;58864;45.928;20.078;2023-02-21T17:15:20;27.67;;;11.10;;
71166;SDS011;58864;45.928;20.078;2023-02-21T17:17:44;14.68;;;5.57;;
71166;SDS011;58864;45.928;20.078;2023-02-21T17:20:12;16.27;;;6.03;;
71166;SDS011;58864;45.928;20.078;2023-02-21T17:22:39;14.23;;;5.93;;